Time;durP1;ratioP1;P1;durP2;ratioP2;P2;SDS_P1;SDS_P2;PMS_P1;PMS_P2;Temp;Humidity;BMP_temperature;BMP_pressure;BME280_temperature;BME280_humidity;BME280_pressure;Samples;Min_cycle;Max_cycle;Signal;HPM_P1;HPM_P2
2022/10/23 00:00:11;;;;;;;5.73;3.93;;;;;;;;;;5047188;28;20178;-78
2022/10/23 00:02:37;;;;;;;15.07;8.20;;;;;;;;;;5036664;28;20182;-78
2022/10/23 00:05:03;;;;;;;9.80;5.87;;;;;;;;;;5052962;28;20575;-79
2022/10/23 00:07:29;;;;;;;11.07;4.40;;;;;;;;;;5050244;28;20217;-79
2022/10/23 00:09:56;;;;;;;7.67;4.10;;;;;;;;;;5049413;28;20215;-78
2022/10/23 00:12:22;;;;;;;5.83;3.13;;;;;;;;;;5040579;28;20304;-78
2022/10/23 00:14:48;;;;;;;4.47;3.70;;;;;;;;;;5042362;28;20225;-78
2022/10/23 00:17:14;;;;;;;6.47;4.37;;;;;;;;;;5046672;28;20189;-79
2022/10/23 00:19:40;;;;;;;6.10;4.83;;;;;;;;;;5038842;28;20272;-79
2022/10/23 00:22:07;;;;;;;9.07;4.50;;;;;;;;;;5048403;28;20186;-78
2022/10/23 00:24:33;;;;;;;7.53;4.20;;;;;;;;;;5049030;28;20209;-78
2022/10/23 00:26:59;;;;;;;6.50;4.33;;;;;;;;;;5049861;28;20689;-78
2022/10/23 00:29:27;;;;;;;6.43;3.67;;;;;;;;;;5040238;28;20183;-78
2022/10/23 00:31:54;;;;;;;5.83;3.63;;;;;;;;;;5034134;28;20189;-78
2022/10/23 00:34:20;;;;;;;5.53;3.70;;;;;;;;;;5038674;28;20586;-78
2022/10/23 00:36:46;;;;;;;6.33;4.00;;;;;;;;;;5043110;28;20182;-78
2022/10/23 00:39:12;;;;;;;6.93;3.47;;;;;;;;;;5040591;28;20313;-78
2022/10/23 00:41:38;;;;;;;7.07;3.33;;;;;;;;;;5044063;28;20176;-78
2022/10/23 00:44:08;;;;;;;10.53;3.30;;;;;;;;;;5044317;28;20203;-78
2022/10/23 00:46:35;;;;;;;7.47;3.67;;;;;;;;;;5040721;28;20198;-78
2022/10/23 00:49:02;;;;;;;5.63;3.40;;;;;;;;;;5047809;28;20633;-78
2022/10/23 00:51:30;;;;;;;6.60;3.30;;;;;;;;;;5047520;28;20178;-78
2022/10/23 00:53:58;;;;;;;5.53;3.67;;;;;;;;;;5049977;28;20220;-78
2022/10/23 00:56:25;;;;;;;7.10;3.20;;;;;;;;;;5042919;28;20186;-78
2022/10/23 00:58:51;;;;;;;5.87;3.57;;;;;;;;;;5046638;28;20251;-78
2022/10/23 01:01:18;;;;;;;4.33;3.60;;;;;;;;;;5041573;28;20675;-78
2022/10/23 01:03:46;;;;;;;6.40;3.37;;;;;;;;;;5039397;28;20212;-78
2022/10/23 01:06:22;;;;;;;7.17;3.77;;;;;;;;;;5047171;28;20513;-78
2022/10/23 01:09:02;;;;;;;7.37;3.67;;;;;;;;;;5031574;28;20201;-78
2022/10/23 01:11:40;;;;;;;10.30;5.10;;;;;;;;;;5041581;28;20173;-78
2022/10/23 01:14:12;;;;;;;24.27;12.80;;;;;;;;;;5043352;28;20228;-78
2022/10/23 01:16:53;;;;;;;21.27;11.60;;;;;;;;;;5045416;28;20196;-78
2022/10/23 01:19:27;;;;;;;11.90;8.07;;;;;;;;;;5031305;28;20209;-78
2022/10/23 01:22:12;;;;;;;6.43;4.63;;;;;;;;;;5042988;28;20232;-78
2022/10/23 01:24:45;;;;;;;6.63;4.10;;;;;;;;;;5043183;28;20197;-78
2022/10/23 01:27:14;;;;;;;5.23;3.80;;;;;;;;;;5042775;28;20182;-78
2022/10/23 01:29:45;;;;;;;8.27;4.13;;;;;;;;;;5039352;28;20402;-78
2022/10/23 01:32:14;;;;;;;12.17;6.30;;;;;;;;;;5040372;28;20712;-77
2022/10/23 01:34:40;;;;;;;8.87;5.30;;;;;;;;;;5046482;28;20203;-77
2022/10/23 01:37:10;;;;;;;8.33;4.77;;;;;;;;;;5046641;28;20208;-77
2022/10/23 01:39:38;;;;;;;8.57;4.10;;;;;;;;;;5043375;28;20275;-77
2022/10/23 01:42:10;;;;;;;11.57;7.47;;;;;;;;;;5045204;28;20211;-77
2022/10/23 01:44:45;;;;;;;7.83;5.30;;;;;;;;;;5029571;28;20205;-77
2022/10/23 01:47:13;;;;;;;8.83;4.23;;;;;;;;;;5040635;28;20208;-77
2022/10/23 01:49:55;;;;;;;9.23;4.13;;;;;;;;;;5044851;28;20280;-77
2022/10/23 01:52:21;;;;;;;13.17;5.50;;;;;;;;;;5046309;28;20206;-77
2022/10/23 01:54:51;;;;;;;8.97;3.93;;;;;;;;;;5046004;28;20205;-78
2022/10/23 01:57:18;;;;;;;6.73;4.50;;;;;;;;;;5044985;28;20224;-78
2022/10/23 01:59:48;;;;;;;7.17;3.97;;;;;;;;;;5047356;28;20239;-78
2022/10/23 02:02:15;;;;;;;7.00;4.43;;;;;;;;;;5046590;28;20186;-77
2022/10/23 02:05:04;;;;;;;10.07;5.73;;;;;;;;;;5045954;28;20202;-77
2022/10/23 02:07:30;;;;;;;6.20;4.30;;;;;;;;;;5038646;28;20198;-78
2022/10/23 02:09:57;;;;;;;6.00;3.97;;;;;;;;;;5030302;28;20656;-77
2022/10/23 02:12:24;;;;;;;5.30;3.97;;;;;;;;;;5047145;28;20837;-78
2022/10/23 02:14:57;;;;;;;5.83;4.17;;;;;;;;;;5044755;28;20199;-78
2022/10/23 02:17:34;;;;;;;5.10;3.50;;;;;;;;;;5043466;28;20206;-78
2022/10/23 02:20:06;;;;;;;6.53;4.37;;;;;;;;;;5044854;28;20219;-78
2022/10/23 02:22:37;;;;;;;6.23;3.73;;;;;;;;;;5047303;28;20197;-78
2022/10/23 02:25:10;;;;;;;6.60;4.07;;;;;;;;;;5045808;28;20554;-78
2022/10/23 02:27:41;;;;;;;5.33;3.50;;;;;;;;;;5048299;28;20234;-78
2022/10/23 02:30:09;;;;;;;3.77;3.10;;;;;;;;;;5056293;28;20205;-78
2022/10/23 02:32:36;;;;;;;6.57;3.47;;;;;;;;;;5029726;28;20228;-77
2022/10/23 02:35:03;;;;;;;8.37;3.53;;;;;;;;;;5047401;28;20202;-77
2022/10/23 02:37:29;;;;;;;6.50;4.10;;;;;;;;;;5045448;28;20186;-78
2022/10/23 02:39:56;;;;;;;6.53;3.93;;;;;;;;;;5046263;28;20193;-77
2022/10/23 02:42:25;;;;;;;6.63;3.40;;;;;;;;;;5040487;28;20188;-77
2022/10/23 02:44:58;;;;;;;7.97;4.27;;;;;;;;;;5044757;28;20200;-78
2022/10/23 02:47:45;;;;;;;9.33;4.87;;;;;;;;;;5027363;28;20182;-77
2022/10/23 02:50:25;;;;;;;11.27;5.67;;;;;;;;;;4979738;28;20215;-78
2022/10/23 02:52:58;;;;;;;11.30;5.43;;;;;;;;;;5037680;28;20623;-78
2022/10/23 02:55:31;;;;;;;9.20;5.20;;;;;;;;;;5044933;28;20272;-77
2022/10/23 02:58:03;;;;;;;7.43;4.20;;;;;;;;;;5041784;28;20212;-77
2022/10/23 03:00:31;;;;;;;8.23;4.10;;;;;;;;;;5041523;28;20194;-77
2022/10/23 03:03:05;;;;;;;6.07;3.70;;;;;;;;;;5049656;28;20496;-77
2022/10/23 03:05:33;;;;;;;9.23;3.83;;;;;;;;;;5042016;28;20204;-78
2022/10/23 03:08:02;;;;;;;4.77;3.63;;;;;;;;;;5042219;28;20200;-78
2022/10/23 03:10:28;;;;;;;4.70;3.27;;;;;;;;;;5056855;28;20263;-78
2022/10/23 03:12:54;;;;;;;4.20;3.57;;;;;;;;;;5046406;28;20209;-77
2022/10/23 03:15:20;;;;;;;5.00;3.23;;;;;;;;;;5044441;28;20520;-78
2022/10/23 03:17:49;;;;;;;4.73;3.50;;;;;;;;;;5043914;28;20189;-78
2022/10/23 03:20:16;;;;;;;10.00;4.00;;;;;;;;;;5044832;28;20609;-78
2022/10/23 03:22:43;;;;;;;5.87;3.60;;;;;;;;;;5042156;28;20231;-78
2022/10/23 03:25:10;;;;;;;5.80;3.60;;;;;;;;;;5038879;28;20210;-78
2022/10/23 03:27:36;;;;;;;7.90;3.57;;;;;;;;;;5046304;28;20217;-78
2022/10/23 03:30:05;;;;;;;5.20;3.70;;;;;;;;;;5044134;28;20264;-78
2022/10/23 03:32:33;;;;;;;5.63;3.83;;;;;;;;;;5047343;28;20607;-78
2022/10/23 03:34:59;;;;;;;6.77;3.80;;;;;;;;;;5031654;28;20225;-78
2022/10/23 03:37:26;;;;;;;6.20;3.63;;;;;;;;;;5048304;28;20697;-78
2022/10/23 03:39:55;;;;;;;6.50;3.63;;;;;;;;;;5032419;28;20655;-77
2022/10/23 03:42:27;;;;;;;7.13;3.53;;;;;;;;;;5041101;28;20523;-77
2022/10/23 03:44:54;;;;;;;5.20;3.73;;;;;;;;;;5025162;28;20205;-77
2022/10/23 03:47:20;;;;;;;7.80;3.80;;;;;;;;;;5048407;28;20181;-77
2022/10/23 03:49:46;;;;;;;5.37;3.53;;;;;;;;;;5048369;28;20186;-79
2022/10/23 03:52:13;;;;;;;5.33;3.43;;;;;;;;;;5048723;28;20299;-79
2022/10/23 03:54:39;;;;;;;6.60;3.33;;;;;;;;;;5048993;28;20671;-78
2022/10/23 03:57:05;;;;;;;5.33;3.57;;;;;;;;;;5046636;28;20519;-78
2022/10/23 03:59:31;;;;;;;4.70;3.40;;;;;;;;;;5043526;28;20316;-78
2022/10/23 04:01:58;;;;;;;8.40;3.10;;;;;;;;;;5043382;28;20189;-78
2022/10/23 04:04:25;;;;;;;7.77;3.40;;;;;;;;;;5048376;28;20275;-78
2022/10/23 04:06:51;;;;;;;6.77;3.50;;;;;;;;;;5031948;28;20272;-78
2022/10/23 04:09:22;;;;;;;7.20;3.73;;;;;;;;;;5048821;28;20182;-78
2022/10/23 04:11:48;;;;;;;6.73;3.47;;;;;;;;;;5048434;28;20186;-78
2022/10/23 04:14:15;;;;;;;9.27;4.00;;;;;;;;;;5048382;28;20202;-78
2022/10/23 04:16:41;;;;;;;8.60;4.00;;;;;;;;;;5046668;28;20637;-78
2022/10/23 04:19:08;;;;;;;7.83;3.80;;;;;;;;;;5038748;28;20190;-78
2022/10/23 04:21:34;;;;;;;5.53;3.40;;;;;;;;;;5041084;28;20185;-78
2022/10/23 04:24:00;;;;;;;5.97;3.33;;;;;;;;;;5048555;28;20704;-78
2022/10/23 04:26:26;;;;;;;5.83;3.03;;;;;;;;;;5048417;28;20178;-78
2022/10/23 04:28:52;;;;;;;5.63;3.30;;;;;;;;;;5047790;28;20235;-78
2022/10/23 04:31:19;;;;;;;4.67;2.77;;;;;;;;;;5049036;28;20174;-78
2022/10/23 04:33:45;;;;;;;3.67;3.20;;;;;;;;;;5047504;28;20210;-78
2022/10/23 04:36:25;;;;;;;3.60;2.63;;;;;;;;;;5044727;28;20185;-78
2022/10/23 04:38:52;;;;;;;7.30;3.37;;;;;;;;;;5047882;28;20185;-78
2022/10/23 04:41:23;;;;;;;4.63;3.23;;;;;;;;;;5048232;28;20174;-78
2022/10/23 04:43:49;;;;;;;5.93;3.37;;;;;;;;;;5047612;28;20252;-78
2022/10/23 04:46:15;;;;;;;3.40;3.10;;;;;;;;;;5047809;28;20638;-78
2022/10/23 04:48:45;;;;;;;5.23;3.10;;;;;;;;;;5044878;28;20181;-78
2022/10/23 04:51:14;;;;;;;5.67;3.30;;;;;;;;;;5039761;28;20174;-78
2022/10/23 04:53:57;;;;;;;5.00;3.50;;;;;;;;;;5041211;28;20272;-78
2022/10/23 04:56:46;;;;;;;5.47;3.37;;;;;;;;;;5041079;28;20178;-78
2022/10/23 04:59:16;;;;;;;4.77;3.30;;;;;;;;;;5028026;28;20598;-78
2022/10/23 05:01:42;;;;;;;6.20;3.40;;;;;;;;;;5044789;28;20189;-78
2022/10/23 05:04:09;;;;;;;5.50;3.70;;;;;;;;;;5044050;28;20213;-78
2022/10/23 05:06:56;;;;;;;5.23;3.30;;;;;;;;;;5042433;28;20240;-78
2022/10/23 05:09:42;;;;;;;5.77;3.70;;;;;;;;;;5047585;28;20237;-78
2022/10/23 05:12:16;;;;;;;4.90;3.80;;;;;;;;;;5029772;28;20291;-78
2022/10/23 05:14:42;;;;;;;4.97;3.60;;;;;;;;;;5048306;28;20197;-78
2022/10/23 05:17:15;;;;;;;4.63;3.40;;;;;;;;;;5043796;28;20181;-78
2022/10/23 05:19:43;;;;;;;5.40;3.40;;;;;;;;;;5048628;28;20229;-78
2022/10/23 05:22:09;;;;;;;6.03;3.40;;;;;;;;;;5045911;28;20186;-78
2022/10/23 05:24:46;;;;;;;4.77;3.40;;;;;;;;;;5031482;28;20741;-78
2022/10/23 05:27:12;;;;;;;3.93;3.53;;;;;;;;;;5047053;28;20186;-78
2022/10/23 05:29:40;;;;;;;6.60;3.70;;;;;;;;;;5047208;28;20185;-78
2022/10/23 05:32:08;;;;;;;5.70;3.40;;;;;;;;;;5047044;28;20216;-78
2022/10/23 05:34:37;;;;;;;4.60;3.40;;;;;;;;;;5030128;28;20393;-78
2022/10/23 05:37:04;;;;;;;5.53;3.57;;;;;;;;;;5046796;28;20185;-78
2022/10/23 05:39:35;;;;;;;4.77;3.30;;;;;;;;;;5043233;28;20181;-78
2022/10/23 05:42:05;;;;;;;8.23;3.93;;;;;;;;;;5046575;28;20508;-78
2022/10/23 05:44:31;;;;;;;4.83;3.80;;;;;;;;;;5046203;28;20649;-78
2022/10/23 05:47:08;;;;;;;4.87;3.50;;;;;;;;;;5039506;28;20169;-78
2022/10/23 05:49:52;;;;;;;3.73;3.30;;;;;;;;;;5033676;28;20174;-78
2022/10/23 05:52:37;;;;;;;4.50;3.97;;;;;;;;;;5047711;28;20209;-78
2022/10/23 05:55:17;;;;;;;4.40;3.83;;;;;;;;;;5042680;28;20209;-78
2022/10/23 05:57:52;;;;;;;5.70;4.43;;;;;;;;;;5033853;28;20177;-78
2022/10/23 06:00:29;;;;;;;6.37;4.10;;;;;;;;;;5045373;28;20196;-78
2022/10/23 06:03:14;;;;;;;10.37;4.77;;;;;;;;;;5045611;28;20205;-78
2022/10/23 06:05:48;;;;;;;8.13;4.70;;;;;;;;;;5045796;28;20214;-78
2022/10/23 06:08:20;;;;;;;4.47;3.80;;;;;;;;;;5031207;28;20193;-78
2022/10/23 06:10:49;;;;;;;4.80;4.10;;;;;;;;;;5046030;28;20204;-78
2022/10/23 06:13:15;;;;;;;6.27;3.90;;;;;;;;;;5034373;28;20213;-78
2022/10/23 06:15:42;;;;;;;5.73;3.80;;;;;;;;;;5045946;28;20604;-78
2022/10/23 06:18:13;;;;;;;6.40;3.93;;;;;;;;;;5045687;28;20196;-78
2022/10/23 06:20:51;;;;;;;4.90;3.90;;;;;;;;;;5029777;28;20192;-78
2022/10/23 06:23:23;;;;;;;5.20;3.83;;;;;;;;;;5046419;28;20497;-80
2022/10/23 06:26:06;;;;;;;8.50;4.20;;;;;;;;;;5029454;28;20190;-79
2022/10/23 06:28:47;;;;;;;5.47;3.90;;;;;;;;;;5042914;28;20182;-78
2022/10/23 06:31:14;;;;;;;6.23;4.67;;;;;;;;;;5025172;28;20259;-77
2022/10/23 06:33:40;;;;;;;5.93;4.63;;;;;;;;;;5044017;28;20266;-78
2022/10/23 06:36:09;;;;;;;5.37;4.40;;;;;;;;;;5034127;28;20430;-81
2022/10/23 06:38:39;;;;;;;4.77;4.17;;;;;;;;;;5045398;28;20182;-79
2022/10/23 06:41:06;;;;;;;5.80;4.47;;;;;;;;;;5052281;28;20193;-78
2022/10/23 06:43:36;;;;;;;7.07;4.83;;;;;;;;;;5050824;28;20220;-78
2022/10/23 06:46:20;;;;;;;9.07;4.13;;;;;;;;;;5051343;28;20190;-78
2022/10/23 06:49:05;;;;;;;7.00;3.97;;;;;;;;;;5043658;28;20236;-78
2022/10/23 06:51:37;;;;;;;5.57;4.20;;;;;;;;;;5062984;28;20201;-78
2022/10/23 06:54:05;;;;;;;10.10;4.10;;;;;;;;;;5050092;28;20213;-79
2022/10/23 06:56:54;;;;;;;7.57;3.70;;;;;;;;;;5023019;28;20231;-79
2022/10/23 06:59:32;;;;;;;6.27;4.00;;;;;;;;;;5051077;28;20183;-78
2022/10/23 07:01:59;;;;;;;6.40;4.37;;;;;;;;;;5045338;28;20908;-78
2022/10/23 07:04:26;;;;;;;7.83;5.53;;;;;;;;;;5041426;28;20190;-78
2022/10/23 07:06:56;;;;;;;10.83;5.30;;;;;;;;;;5043769;28;20745;-79
2022/10/23 07:09:27;;;;;;;6.57;4.90;;;;;;;;;;5032758;28;20174;-78
2022/10/23 07:11:53;;;;;;;5.03;4.37;;;;;;;;;;5044047;28;20214;-78
2022/10/23 07:14:27;;;;;;;5.13;4.43;;;;;;;;;;5060009;28;20284;-78
2022/10/23 07:16:53;;;;;;;7.67;4.17;;;;;;;;;;5034719;28;20189;-79
2022/10/23 07:19:20;;;;;;;5.03;4.13;;;;;;;;;;5061502;28;20185;-79
2022/10/23 07:21:55;;;;;;;5.13;4.10;;;;;;;;;;5049104;28;20635;-79
2022/10/23 07:24:35;;;;;;;6.70;5.00;;;;;;;;;;5057526;28;20748;-79
2022/10/23 07:27:04;;;;;;;6.93;4.90;;;;;;;;;;5045077;28;20245;-79
2022/10/23 07:29:30;;;;;;;5.67;4.17;;;;;;;;;;5052870;28;20544;-79
2022/10/23 07:31:56;;;;;;;4.33;3.93;;;;;;;;;;5038037;28;20190;-78
2022/10/23 07:34:41;;;;;;;5.30;4.13;;;;;;;;;;5048289;28;20215;-78
2022/10/23 07:37:25;;;;;;;5.83;4.47;;;;;;;;;;5033895;28;20264;-79
2022/10/23 07:39:51;;;;;;;7.17;4.50;;;;;;;;;;5033978;28;20206;-79
2022/10/23 07:42:17;;;;;;;5.97;4.17;;;;;;;;;;5057278;28;20190;-78
2022/10/23 07:44:43;;;;;;;7.17;3.83;;;;;;;;;;5059737;28;20205;-79
2022/10/23 07:47:10;;;;;;;5.10;4.00;;;;;;;;;;5055390;28;20228;-77
2022/10/23 07:49:38;;;;;;;6.40;3.87;;;;;;;;;;5059407;28;20190;-79
2022/10/23 07:52:05;;;;;;;7.77;3.93;;;;;;;;;;5046695;28;20208;-79
2022/10/23 07:54:52;;;;;;;7.20;4.37;;;;;;;;;;5045147;28;20212;-79
2022/10/23 07:57:20;;;;;;;5.20;4.70;;;;;;;;;;5066871;28;20166;-78
2022/10/23 07:59:53;;;;;;;6.77;4.50;;;;;;;;;;5041449;28;20568;-79
2022/10/23 08:02:21;;;;;;;6.37;4.37;;;;;;;;;;5034055;28;20193;-79
2022/10/23 08:04:49;;;;;;;7.80;5.07;;;;;;;;;;5044489;28;20281;-80
2022/10/23 08:07:25;;;;;;;9.30;4.80;;;;;;;;;;5052195;28;20201;-79
2022/10/23 08:09:54;;;;;;;5.67;4.30;;;;;;;;;;5042848;28;20194;-78
2022/10/23 08:12:20;;;;;;;7.67;4.30;;;;;;;;;;5057685;28;20333;-78
2022/10/23 08:14:47;;;;;;;4.73;4.10;;;;;;;;;;5047167;28;20217;-78
2022/10/23 08:17:13;;;;;;;4.70;4.27;;;;;;;;;;5060829;28;20254;-78
2022/10/23 08:20:03;;;;;;;6.10;4.00;;;;;;;;;;5034170;28;20855;-79
2022/10/23 08:22:37;;;;;;;7.27;4.50;;;;;;;;;;5056008;28;20257;-77
2022/10/23 08:25:04;;;;;;;7.07;4.30;;;;;;;;;;5048211;28;20280;-77
2022/10/23 08:27:30;;;;;;;7.90;4.10;;;;;;;;;;5039661;28;20186;-78
2022/10/23 08:29:56;;;;;;;5.83;4.33;;;;;;;;;;5044075;28;20185;-78
2022/10/23 08:32:22;;;;;;;4.80;4.27;;;;;;;;;;5058977;28;20214;-79
2022/10/23 08:34:57;;;;;;;7.00;4.73;;;;;;;;;;5019559;28;20210;-79
2022/10/23 08:37:24;;;;;;;6.37;4.23;;;;;;;;;;5045468;28;20221;-78
2022/10/23 08:39:51;;;;;;;5.87;4.67;;;;;;;;;;5045475;28;20233;-79
2022/10/23 08:42:24;;;;;;;5.17;4.20;;;;;;;;;;5049406;28;20239;-78
2022/10/23 08:45:07;;;;;;;5.33;4.20;;;;;;;;;;5046510;28;20559;-78
2022/10/23 08:47:37;;;;;;;5.00;4.50;;;;;;;;;;5047013;28;20206;-78
2022/10/23 08:50:35;;;;;;;7.00;4.30;;;;;;;;;;5045317;28;20841;-79
2022/10/23 08:53:11;;;;;;;5.20;4.40;;;;;;;;;;5047985;28;20690;-80
2022/10/23 08:55:41;;;;;;;6.97;4.70;;;;;;;;;;5049352;28;20205;-80
2022/10/23 08:58:13;;;;;;;9.50;4.67;;;;;;;;;;5030618;28;20235;-80
2022/10/23 09:00:40;;;;;;;5.73;4.43;;;;;;;;;;5043744;28;20688;-79
2022/10/23 09:03:09;;;;;;;5.63;4.70;;;;;;;;;;5042394;28;20192;-80
2022/10/23 09:05:39;;;;;;;6.97;4.10;;;;;;;;;;5029853;28;20198;-81
2022/10/23 09:08:08;;;;;;;6.87;4.50;;;;;;;;;;5038274;28;20280;-79
2022/10/23 09:10:45;;;;;;;6.90;5.13;;;;;;;;;;5038360;28;20200;-78
2022/10/23 09:13:20;;;;;;;7.93;4.40;;;;;;;;;;5042599;28;20217;-80
2022/10/23 09:15:58;;;;;;;6.93;4.93;;;;;;;;;;5041807;28;20177;-78
2022/10/23 09:18:24;;;;;;;5.30;4.33;;;;;;;;;;5050658;28;20182;-78
2022/10/23 09:20:52;;;;;;;5.77;4.10;;;;;;;;;;5050908;28;20185;-78
2022/10/23 09:23:23;;;;;;;5.80;4.07;;;;;;;;;;5052323;28;20235;-78
2022/10/23 09:25:56;;;;;;;6.10;4.10;;;;;;;;;;5046458;28;20182;-78
2022/10/23 09:28:25;;;;;;;8.43;5.40;;;;;;;;;;5032091;28;20632;-78
2022/10/23 09:30:51;;;;;;;8.17;5.33;;;;;;;;;;5046664;28;20217;-78
2022/10/23 09:33:30;;;;;;;8.57;5.70;;;;;;;;;;5047916;28;20202;-76
2022/10/23 09:35:56;;;;;;;8.13;5.87;;;;;;;;;;5047121;28;20182;-77
2022/10/23 09:38:25;;;;;;;8.77;5.47;;;;;;;;;;5039202;28;20626;-78
2022/10/23 09:40:52;;;;;;;6.40;5.30;;;;;;;;;;5037988;28;20188;-77
2022/10/23 09:43:24;;;;;;;6.10;4.70;;;;;;;;;;5039841;28;20182;-77
2022/10/23 09:45:57;;;;;;;6.40;4.67;;;;;;;;;;5048101;28;20557;-78
2022/10/23 09:48:24;;;;;;;8.10;4.50;;;;;;;;;;5039943;28;20234;-78
2022/10/23 09:50:52;;;;;;;10.23;5.07;;;;;;;;;;5039152;28;20655;-77
2022/10/23 09:53:24;;;;;;;6.93;4.97;;;;;;;;;;5041466;28;20215;-77
2022/10/23 09:55:52;;;;;;;8.03;5.10;;;;;;;;;;5040204;28;20198;-78
2022/10/23 09:58:26;;;;;;;7.97;5.00;;;;;;;;;;5042748;28;20201;-77
2022/10/23 10:00:52;;;;;;;9.73;5.33;;;;;;;;;;5038734;28;20181;-77
2022/10/23 10:03:20;;;;;;;7.97;5.50;;;;;;;;;;5038097;28;20209;-77
2022/10/23 10:06:01;;;;;;;8.33;5.80;;;;;;;;;;5054641;28;20331;-78
2022/10/23 10:08:28;;;;;;;7.30;5.40;;;;;;;;;;5057156;28;20194;-78
2022/10/23 10:11:01;;;;;;;7.77;5.10;;;;;;;;;;5038314;28;20190;-78
2022/10/23 10:13:36;;;;;;;7.50;5.10;;;;;;;;;;5056219;28;20553;-78
2022/10/23 10:16:07;;;;;;;7.97;5.20;;;;;;;;;;5040777;28;20184;-78
2022/10/23 10:18:41;;;;;;;7.40;5.80;;;;;;;;;;5043571;28;20175;-78
2022/10/23 10:21:20;;;;;;;6.57;5.00;;;;;;;;;;5042037;28;20177;-78
2022/10/23 10:23:49;;;;;;;7.10;4.40;;;;;;;;;;5040613;28;20810;-78
2022/10/23 10:26:29;;;;;;;5.23;4.57;;;;;;;;;;5041045;28;20229;-78
2022/10/23 10:29:01;;;;;;;5.90;3.87;;;;;;;;;;5042995;28;20197;-78
2022/10/23 10:31:33;;;;;;;6.97;4.00;;;;;;;;;;5039913;28;20284;-78
2022/10/23 10:34:10;;;;;;;6.17;4.13;;;;;;;;;;5039295;28;20213;-79
2022/10/23 10:36:39;;;;;;;4.80;4.17;;;;;;;;;;5042200;28;20192;-84
2022/10/23 10:39:11;;;;;;;13.80;5.50;;;;;;;;;;5033350;28;20188;-77
2022/10/23 10:41:41;;;;;;;7.23;5.07;;;;;;;;;;5048883;28;20594;-77
2022/10/23 10:44:20;;;;;;;7.17;4.87;;;;;;;;;;5052330;28;20296;-77
2022/10/23 10:47:05;;;;;;;7.47;5.33;;;;;;;;;;5043558;28;20193;-78
2022/10/23 10:49:44;;;;;;;7.27;4.77;;;;;;;;;;5034430;28;20186;-78
2022/10/23 10:52:46;;;;;;;10.63;5.87;;;;;;;;;;5025517;28;20256;-78
2022/10/23 10:55:12;;;;;;;8.77;5.57;;;;;;;;;;5036707;28;20748;-80
2022/10/23 10:57:40;;;;;;;8.10;5.67;;;;;;;;;;5036709;28;20180;-77
2022/10/23 11:00:14;;;;;;;7.30;5.30;;;;;;;;;;5038197;28;20182;-77
2022/10/23 11:02:48;;;;;;;7.93;5.70;;;;;;;;;;5037840;28;20205;-78
2022/10/23 11:05:36;;;;;;;8.57;5.57;;;;;;;;;;5036247;28;20304;-79
2022/10/23 11:08:12;;;;;;;9.23;5.13;;;;;;;;;;5037456;28;20194;-80
2022/10/23 11:10:41;;;;;;;8.33;5.23;;;;;;;;;;5050066;28;20193;-76
2022/10/23 11:13:23;;;;;;;6.20;5.13;;;;;;;;;;5034530;28;20215;-78
2022/10/23 11:15:50;;;;;;;6.33;5.20;;;;;;;;;;5036286;28;20646;-79
2022/10/23 11:18:22;;;;;;;9.13;5.90;;;;;;;;;;5040549;28;20214;-81
2022/10/23 11:20:52;;;;;;;7.57;5.43;;;;;;;;;;5039233;28;20179;-77
2022/10/23 11:23:47;;;;;;;10.40;5.77;;;;;;;;;;5044452;28;20194;-83
2022/10/23 11:26:23;;;;;;;6.47;5.20;;;;;;;;;;5043043;28;20186;-78
2022/10/23 11:28:57;;;;;;;7.80;5.40;;;;;;;;;;5039115;28;20822;-81
2022/10/23 11:31:43;;;;;;;9.87;5.30;;;;;;;;;;5038027;28;20177;-80
2022/10/23 11:34:30;;;;;;;7.20;5.40;;;;;;;;;;5028502;28;20233;-82
2022/10/23 11:36:58;;;;;;;6.93;4.80;;;;;;;;;;5049679;28;20190;-80
2022/10/23 11:39:25;;;;;;;6.40;4.70;;;;;;;;;;5043481;28;20181;-82
2022/10/23 11:41:58;;;;;;;7.97;4.50;;;;;;;;;;5047123;28;20684;-83
2022/10/23 11:44:27;;;;;;;5.77;4.87;;;;;;;;;;5032998;28;20206;-81
2022/10/23 11:47:05;;;;;;;8.27;4.23;;;;;;;;;;5067805;28;20272;-83
2022/10/23 11:49:31;;;;;;;6.73;4.10;;;;;;;;;;5053367;28;20173;-82
2022/10/23 11:52:02;;;;;;;5.07;3.90;;;;;;;;;;5056261;28;20177;-83
2022/10/23 11:54:28;;;;;;;5.43;3.80;;;;;;;;;;5054928;28;20198;-83
2022/10/23 11:57:06;;;;;;;4.87;3.77;;;;;;;;;;5051876;28;20179;-82
2022/10/23 11:59:50;;;;;;;5.90;4.17;;;;;;;;;;5066956;28;20300;-83
2022/10/23 12:02:23;;;;;;;7.93;3.73;;;;;;;;;;5049930;28;20525;-82
2022/10/23 12:04:51;;;;;;;5.37;3.53;;;;;;;;;;5057337;28;20267;-85
2022/10/23 12:07:17;;;;;;;4.43;3.50;;;;;;;;;;5057682;28;20194;-84
2022/10/23 12:09:51;;;;;;;3.67;3.07;;;;;;;;;;5051232;28;20189;-81
2022/10/23 12:12:29;;;;;;;5.87;3.70;;;;;;;;;;5067015;28;20186;-80
2022/10/23 12:15:13;;;;;;;7.10;4.40;;;;;;;;;;5035831;28;20222;-83
2022/10/23 12:17:40;;;;;;;4.57;3.40;;;;;;;;;;5034240;28;20207;-83
2022/10/23 12:20:09;;;;;;;5.53;3.60;;;;;;;;;;5036105;28;20214;-84
2022/10/23 12:22:42;;;;;;;4.47;3.47;;;;;;;;;;5036794;28;20533;-84
2022/10/23 12:25:16;;;;;;;5.83;3.53;;;;;;;;;;5053107;28;20200;-84
2022/10/23 12:27:49;;;;;;;7.20;3.10;;;;;;;;;;5052530;28;20192;-84
2022/10/23 12:30:28;;;;;;;7.37;3.30;;;;;;;;;;5036432;28;20200;-84
2022/10/23 12:33:07;;;;;;;5.80;3.23;;;;;;;;;;5042048;28;20208;-84
2022/10/23 12:35:48;;;;;;;5.40;3.20;;;;;;;;;;5038019;28;20268;-83
2022/10/23 12:38:16;;;;;;;4.10;3.20;;;;;;;;;;5054046;28;20709;-84
2022/10/23 12:41:05;;;;;;;4.00;2.90;;;;;;;;;;5055346;28;20196;-80
2022/10/23 12:43:33;;;;;;;7.57;3.90;;;;;;;;;;5044658;28;20187;-76
2022/10/23 12:46:03;;;;;;;3.90;3.00;;;;;;;;;;5043858;28;20220;-77
2022/10/23 12:48:29;;;;;;;4.53;3.23;;;;;;;;;;5043804;28;20645;-78
2022/10/23 12:50:56;;;;;;;5.30;3.27;;;;;;;;;;5041850;28;20184;-78
2022/10/23 12:53:23;;;;;;;3.47;2.83;;;;;;;;;;5043212;28;20217;-78
2022/10/23 12:55:53;;;;;;;5.17;2.63;;;;;;;;;;5044144;28;20175;-77
2022/10/23 12:58:20;;;;;;;5.13;3.03;;;;;;;;;;5043661;28;20231;-78
2022/10/23 13:00:52;;;;;;;4.20;2.77;;;;;;;;;;5035566;28;20217;-78
2022/10/23 13:03:19;;;;;;;4.20;2.90;;;;;;;;;;5046591;28;20205;-78
2022/10/23 13:05:45;;;;;;;3.20;2.83;;;;;;;;;;5041669;28;20304;-78
2022/10/23 13:08:12;;;;;;;3.27;2.47;;;;;;;;;;5045380;28;20209;-78
2022/10/23 13:10:49;;;;;;;6.10;2.70;;;;;;;;;;5029380;28;20668;-78
2022/10/23 13:13:21;;;;;;;3.33;2.47;;;;;;;;;;5042848;28;20614;-78
2022/10/23 13:15:47;;;;;;;6.17;2.93;;;;;;;;;;5041269;28;20811;-76
2022/10/23 13:18:14;;;;;;;4.17;3.00;;;;;;;;;;5046172;28;20177;-76
2022/10/23 13:20:41;;;;;;;4.40;2.90;;;;;;;;;;5058472;28;20268;-79
2022/10/23 13:23:09;;;;;;;3.90;2.77;;;;;;;;;;5040115;28;20306;-79
2022/10/23 13:25:37;;;;;;;3.33;2.60;;;;;;;;;;5047002;28;20222;-80
2022/10/23 13:28:21;;;;;;;4.70;2.50;;;;;;;;;;5044553;28;20236;-80
2022/10/23 13:30:58;;;;;;;4.77;2.70;;;;;;;;;;5047974;28;20195;-80
2022/10/23 13:33:25;;;;;;;4.07;2.70;;;;;;;;;;5047701;28;20324;-80
2022/10/23 13:36:18;;;;;;;3.83;2.50;;;;;;;;;;5039311;28;20178;-80
2022/10/23 13:38:59;;;;;;;4.30;2.53;;;;;;;;;;5027885;28;20194;-80
2022/10/23 13:41:26;;;;;;;4.27;2.40;;;;;;;;;;5049304;28;20205;-80
2022/10/23 13:43:52;;;;;;;4.07;2.40;;;;;;;;;;5050646;28;20213;-80
2022/10/23 13:46:26;;;;;;;8.53;3.70;;;;;;;;;;5047461;28;20216;-79
2022/10/23 13:48:52;;;;;;;6.63;2.80;;;;;;;;;;5048314;28;20193;-79
2022/10/23 13:51:21;;;;;;;4.77;2.90;;;;;;;;;;5043567;28;20698;-79
2022/10/23 13:53:47;;;;;;;3.80;2.20;;;;;;;;;;5045900;28;20272;-80
2022/10/23 13:56:14;;;;;;;2.67;2.03;;;;;;;;;;5041199;28;20630;-79
2022/10/23 13:58:41;;;;;;;4.07;2.33;;;;;;;;;;5051287;28;20201;-79
2022/10/23 14:01:12;;;;;;;3.57;2.30;;;;;;;;;;5042935;28;20191;-80
2022/10/23 14:03:38;;;;;;;3.20;2.10;;;;;;;;;;5049964;28;20224;-79
2022/10/23 14:06:04;;;;;;;4.83;2.47;;;;;;;;;;5045436;28;20192;-79
2022/10/23 14:08:31;;;;;;;5.00;2.20;;;;;;;;;;5050065;28;20191;-79
2022/10/23 14:10:57;;;;;;;3.07;1.93;;;;;;;;;;5053119;28;20705;-80
2022/10/23 14:13:23;;;;;;;3.90;2.30;;;;;;;;;;5043440;28;20706;-79
2022/10/23 14:15:53;;;;;;;2.80;2.10;;;;;;;;;;5049963;28;20231;-79
2022/10/23 14:18:19;;;;;;;3.50;2.30;;;;;;;;;;5049081;28;20260;-79
2022/10/23 14:20:45;;;;;;;7.57;2.70;;;;;;;;;;5051446;28;20269;-80
2022/10/23 14:23:12;;;;;;;2.40;2.20;;;;;;;;;;5050422;28;20186;-79
2022/10/23 14:25:38;;;;;;;3.23;2.20;;;;;;;;;;5051480;28;20266;-79
2022/10/23 14:28:04;;;;;;;4.50;2.70;;;;;;;;;;5045513;28;20265;-79
2022/10/23 14:30:30;;;;;;;3.67;2.67;;;;;;;;;;5049093;28;20195;-79
2022/10/23 14:32:56;;;;;;;4.13;2.63;;;;;;;;;;5041099;28;20237;-80
2022/10/23 14:35:24;;;;;;;5.27;2.97;;;;;;;;;;5047593;28;20198;-79
2022/10/23 14:37:50;;;;;;;3.40;3.00;;;;;;;;;;5045397;28;20204;-79
2022/10/23 14:40:16;;;;;;;3.00;2.70;;;;;;;;;;5042577;28;20167;-80
2022/10/23 14:42:43;;;;;;;4.07;3.07;;;;;;;;;;5048272;28;20174;-80
2022/10/23 14:45:09;;;;;;;4.57;2.93;;;;;;;;;;5046915;28;20682;-80
2022/10/23 14:47:35;;;;;;;5.07;2.93;;;;;;;;;;5038475;28;20213;-79
2022/10/23 14:50:01;;;;;;;5.90;3.20;;;;;;;;;;5041006;28;20189;-79
2022/10/23 14:52:28;;;;;;;3.73;3.30;;;;;;;;;;5035920;28;20179;-79
2022/10/23 14:54:54;;;;;;;5.63;3.53;;;;;;;;;;5040202;28;20193;-80
2022/10/23 14:57:21;;;;;;;3.87;3.20;;;;;;;;;;5047050;28;20177;-79
2022/10/23 14:59:48;;;;;;;4.00;3.00;;;;;;;;;;5044557;28;20185;-80
2022/10/23 15:02:15;;;;;;;5.07;3.30;;;;;;;;;;5042065;28;20240;-82
2022/10/23 15:04:41;;;;;;;4.63;2.50;;;;;;;;;;5043774;28;20201;-83